sensor_id;sensor_type;location;lat;lon;timestamp;temperature;humidity
13231;DHT22;6681;53.254;10.398;2023-02-01T00:00:48;4.80;99.90
13231;DHT22;6681;53.254;10.398;2023-02-01T00:03:14;4.80;99.90
13231;DHT22;6681;53.254;10.398;2023-02-01T00:05:40;4.70;99.90
13231;DHT22;6681;53.254;10.398;2023-02-01T00:08:05;4.80;99.90
13231;DHT22;6681;53.254;10.398;2023-02-01T00:10:31;6.00;99.90
13231;DHT22;6681;53.254;10.398;2023-02-01T00:12:56;5.10;99.90
13231;DHT22;6681;53.254;10.398;2023-02-01T00:15:22;4.80;99.90
13231;DHT22;6681;53.254;10.398;2023-02-01T00:17:53;6.30;99.90
13231;DHT22;6681;53.254;10.398;2023-02-01T00:20:19;5.10;99.90
13231;DHT22;6681;53.254;10.398;2023-02-01T00:22:44;5.00;99.90
13231;DHT22;6681;53.254;10.398;2023-02-01T00:25:10;4.80;99.90
13231;DHT22;6681;53.254;10.398;2023-02-01T00:27:35;5.50;99.90
13231;DHT22;6681;53.254;10.398;2023-02-01T00:30:01;5.30;99.90
13231;DHT22;6681;53.254;10.398;2023-02-01T00:32:27;4.80;99.90
13231;DHT22;6681;53.254;10.398;2023-02-01T00:34:53;6.90;99.90
13231;DHT22;6681;53.254;10.398;2023-02-01T00:37:18;4.80;99.90
13231;DHT22;6681;53.254;10.398;2023-02-01T00:39:44;4.80;99.90
13231;DHT22;6681;53.254;10.398;2023-02-01T00:42:09;5.60;99.90
13231;DHT22;6681;53.254;10.398;2023-02-01T00:44:35;4.80;99.90
13231;DHT22;6681;53.254;10.398;2023-02-01T00:47:01;4.90;99.90
13231;DHT22;6681;53.254;10.398;2023-02-01T00:49:27;4.90;99.90
13231;DHT22;6681;53.254;10.398;2023-02-01T00:51:53;6.50;99.90
13231;DHT22;6681;53.254;10.398;2023-02-01T00:54:19;5.20;99.90
13231;DHT22;6681;53.254;10.398;2023-02-01T00:56:48;4.90;99.90
13231;DHT22;6681;53.254;10.398;2023-02-01T00:59:14;4.90;99.90
13231;DHT22;6681;53.254;10.398;2023-02-01T01:01:40;4.90;99.90
13231;DHT22;6681;53.254;10.398;2023-02-01T01:04:06;4.90;99.90
13231;DHT22;6681;53.254;10.398;2023-02-01T01:06:32;4.90;99.90
13231;DHT22;6681;53.254;10.398;2023-02-01T01:09:00;6.40;99.90
13231;DHT22;6681;53.254;10.398;2023-02-01T01:11:29;5.00;99.90
13231;DHT22;6681;53.254;10.398;2023-02-01T01:13:56;5.00;99.90
13231;DHT22;6681;53.254;10.398;2023-02-01T01:16:23;5.10;99.90
13231;DHT22;6681;53.254;10.398;2023-02-01T01:18:50;5.00;99.90
13231;DHT22;6681;53.254;10.398;2023-02-01T01:21:16;5.00;99.90
13231;DHT22;6681;53.254;10.398;2023-02-01T01:23:43;6.00;99.90
13231;DHT22;6681;53.254;10.398;2023-02-01T01:26:14;5.00;99.90
13231;DHT22;6681;53.254;10.398;2023-02-01T01:28:40;5.10;99.90
13231;DHT22;6681;53.254;10.398;2023-02-01T01:31:10;5.10;99.90
13231;DHT22;6681;53.254;10.398;2023-02-01T01:33:37;5.10;99.90
13231;DHT22;6681;53.254;10.398;2023-02-01T01:36:05;5.80;99.90
13231;DHT22;6681;53.254;10.398;2023-02-01T01:38:31;5.10;99.90
13231;DHT22;6681;53.254;10.398;2023-02-01T01:40:56;5.10;99.90
13231;DHT22;6681;53.254;10.398;2023-02-01T01:43:22;5.10;99.90
13231;DHT22;6681;53.254;10.398;2023-02-01T01:45:48;5.10;99.90
13231;DHT22;6681;53.254;10.398;2023-02-01T01:48:28;5.10;99.90
13231;DHT22;6681;53.254;10.398;2023-02-01T01:51:04;5.10;99.90
13231;DHT22;6681;53.254;10.398;2023-02-01T01:53:34;5.10;99.90
13231;DHT22;6681;53.254;10.398;2023-02-01T01:56:02;5.10;99.90
13231;DHT22;6681;53.254;10.398;2023-02-01T01:58:29;5.10;99.90
13231;DHT22;6681;53.254;10.398;2023-02-01T02:00:55;5.20;99.90
13231;DHT22;6681;53.254;10.398;2023-02-01T02:03:26;5.10;99.90
13231;DHT22;6681;53.254;10.398;2023-02-01T02:05:53;5.10;99.90
13231;DHT22;6681;53.254;10.398;2023-02-01T02:08:21;5.20;99.90
13231;DHT22;6681;53.254;10.398;2023-02-01T02:10:49;5.10;99.90
13231;DHT22;6681;53.254;10.398;2023-02-01T02:13:38;6.30;99.90
13231;DHT22;6681;53.254;10.398;2023-02-01T02:24:55;5.10;99.90
13231;DHT22;6681;53.254;10.398;2023-02-01T02:33:57;5.10;99.90
13231;DHT22;6681;53.254;10.398;2023-02-01T02:42:02;5.10;99.90
13231;DHT22;6681;53.254;10.398;2023-02-01T02:44:54;5.30;99.90
13231;DHT22;6681;53.254;10.398;2023-02-01T02:50:37;5.10;99.90
13231;DHT22;6681;53.254;10.398;2023-02-01T02:53:34;5.30;99.90
13231;DHT22;6681;53.254;10.398;2023-02-01T02:56:21;5.10;99.90
13231;DHT22;6681;53.254;10.398;2023-02-01T02:59:09;5.10;99.90
13231;DHT22;6681;53.254;10.398;2023-02-01T03:01:55;5.10;99.90
13231;DHT22;6681;53.254;10.398;2023-02-01T03:04:39;5.10;99.90
13231;DHT22;6681;53.254;10.398;2023-02-01T03:07:45;5.10;99.90
13231;DHT22;6681;53.254;10.398;2023-02-01T03:10:03;5.10;99.90
13231;DHT22;6681;53.254;10.398;2023-02-01T03:12:33;5.10;99.90
13231;DHT22;6681;53.254;10.398;2023-02-01T03:15:32;5.10;99.90
13231;DHT22;6681;53.254;10.398;2023-02-01T03:18:01;5.10;99.90
13231;DHT22;6681;53.254;10.398;2023-02-01T03:20:29;5.10;99.90
13231;DHT22;6681;53.254;10.398;2023-02-01T03:22:56;5.40;99.90
13231;DHT22;6681;53.254;10.398;2023-02-01T03:25:26;5.00;99.90
13231;DHT22;6681;53.254;10.398;2023-02-01T03:28:04;5.00;99.90
13231;DHT22;6681;53.254;10.398;2023-02-01T03:30:34;5.00;99.90
13231;DHT22;6681;53.254;10.398;2023-02-01T03:33:04;5.00;99.90
13231;DHT22;6681;53.254;10.398;2023-02-01T03:41:08;5.00;99.90
13231;DHT22;6681;53.254;10.398;2023-02-01T03:43:48;5.00;99.90
13231;DHT22;6681;53.254;10.398;2023-02-01T03:46:21;5.00;99.90
13231;DHT22;6681;53.254;10.398;2023-02-01T03:48:50;5.10;99.90
13231;DHT22;6681;53.254;10.398;2023-02-01T03:51:18;5.20;99.90
13231;DHT22;6681;53.254;10.398;2023-02-01T03:53:45;4.80;99.90
13231;DHT22;6681;53.254;10.398;2023-02-01T03:56:13;4.80;99.90
13231;DHT22;6681;53.254;10.398;2023-02-01T03:58:39;4.80;99.90
13231;DHT22;6681;53.254;10.398;2023-02-01T04:01:05;4.80;99.90
13231;DHT22;6681;53.254;10.398;2023-02-01T04:03:31;4.60;99.90
13231;DHT22;6681;53.254;10.398;2023-02-01T04:05:57;4.50;99.90
13231;DHT22;6681;53.254;10.398;2023-02-01T04:08:24;4.30;99.90
13231;DHT22;6681;53.254;10.398;2023-02-01T04:10:55;4.30;99.90
13231;DHT22;6681;53.254;10.398;2023-02-01T04:13:21;4.20;99.90
13231;DHT22;6681;53.254;10.398;2023-02-01T04:15:47;4.50;99.90
13231;DHT22;6681;53.254;10.398;2023-02-01T04:18:15;4.10;99.90
13231;DHT22;6681;53.254;10.398;2023-02-01T04:20:41;4.10;99.90
13231;DHT22;6681;53.254;10.398;2023-02-01T04:23:07;4.30;99.90
13231;DHT22;6681;53.254;10.398;2023-02-01T04:25:33;4.40;99.90
13231;DHT22;6681;53.254;10.398;2023-02-01T04:27:58;4.40;99.90
13231;DHT22;6681;53.254;10.398;2023-02-01T04:30:24;4.10;99.90
13231;DHT22;6681;53.254;10.398;2023-02-01T04:32:50;4.10;99.90
13231;DHT22;6681;53.254;10.398;2023-02-01T04:35:16;4.10;99.90
13231;DHT22;6681;53.254;10.398;2023-02-01T04:37:43;4.10;99.90
13231;DHT22;6681;53.254;10.398;2023-02-01T04:40:09;4.80;99.90
13231;DHT22;6681;53.254;10.398;2023-02-01T04:42:35;4.10;99.90
13231;DHT22;6681;53.254;10.398;2023-02-01T04:45:01;4.10;99.90
13231;DHT22;6681;53.254;10.398;2023-02-01T04:47:26;4.10;99.90
13231;DHT22;6681;53.254;10.398;2023-02-01T04:49:52;5.30;99.90
13231;DHT22;6681;53.254;10.398;2023-02-01T04:52:17;4.10;99.90
13231;DHT22;6681;53.254;10.398;2023-02-01T04:54:43;4.60;99.90
13231;DHT22;6681;53.254;10.398;2023-02-01T04:57:09;4.10;99.90
13231;DHT22;6681;53.254;10.398;2023-02-01T04:59:34;4.10;99.90
13231;DHT22;6681;53.254;10.398;2023-02-01T05:02:00;4.70;99.90
13231;DHT22;6681;53.254;10.398;2023-02-01T05:04:26;5.80;99.90
13231;DHT22;6681;53.254;10.398;2023-02-01T05:06:51;4.10;99.90
13231;DHT22;6681;53.254;10.398;2023-02-01T05:09:17;3.10;99.90
13231;DHT22;6681;53.254;10.398;2023-02-01T05:11:42;4.10;99.90
13231;DHT22;6681;53.254;10.398;2023-02-01T05:14:26;4.90;99.90
13231;DHT22;6681;53.254;10.398;2023-02-01T05:16:52;4.00;99.90
13231;DHT22;6681;53.254;10.398;2023-02-01T05:19:18;4.00;99.90
13231;DHT22;6681;53.254;10.398;2023-02-01T05:21:43;4.00;99.90
13231;DHT22;6681;53.254;10.398;2023-02-01T05:24:09;4.10;99.90
13231;DHT22;6681;53.254;10.398;2023-02-01T05:26:42;3.90;99.90
13231;DHT22;6681;53.254;10.398;2023-02-01T05:29:09;3.90;99.90
13231;DHT22;6681;53.254;10.398;2023-02-01T05:31:35;3.90;99.90
13231;DHT22;6681;53.254;10.398;2023-02-01T05:34:03;5.30;99.90
13231;DHT22;6681;53.254;10.398;2023-02-01T05:36:29;3.80;99.90
13231;DHT22;6681;53.254;10.398;2023-02-01T05:38:54;4.40;99.90
13231;DHT22;6681;53.254;10.398;2023-02-01T05:41:20;3.80;99.90
13231;DHT22;6681;53.254;10.398;2023-02-01T05:43:46;4.10;99.90
13231;DHT22;6681;53.254;10.398;2023-02-01T05:46:12;6.00;99.90
13231;DHT22;6681;53.254;10.398;2023-02-01T05:48:41;4.90;99.90
13231;DHT22;6681;53.254;10.398;2023-02-01T05:51:07;5.00;99.90
13231;DHT22;6681;53.254;10.398;2023-02-01T05:53:33;4.50;99.90
13231;DHT22;6681;53.254;10.398;2023-02-01T05:55:59;3.80;99.90
13231;DHT22;6681;53.254;10.398;2023-02-01T05:58:24;3.40;99.90
13231;DHT22;6681;53.254;10.398;2023-02-01T06:00:50;4.60;99.90
13231;DHT22;6681;53.254;10.398;2023-02-01T06:03:15;3.60;99.90
13231;DHT22;6681;53.254;10.398;2023-02-01T06:05:43;3.30;99.90
13231;DHT22;6681;53.254;10.398;2023-02-01T06:08:09;3.30;99.90
13231;DHT22;6681;53.254;10.398;2023-02-01T06:10:35;3.60;99.90
13231;DHT22;6681;53.254;10.398;2023-02-01T06:13:00;3.30;99.90
13231;DHT22;6681;53.254;10.398;2023-02-01T06:15:26;3.30;99.90
13231;DHT22;6681;53.254;10.398;2023-02-01T06:17:51;3.70;99.90
13231;DHT22;6681;53.254;10.398;2023-02-01T06:20:17;4.30;99.90
13231;DHT22;6681;53.254;10.398;2023-02-01T06:22:43;3.30;99.90
13231;DHT22;6681;53.254;10.398;2023-02-01T06:25:10;3.20;99.90
13231;DHT22;6681;53.254;10.398;2023-02-01T06:27:36;4.20;99.90
13231;DHT22;6681;53.254;10.398;2023-02-01T06:30:03;4.40;99.90
13231;DHT22;6681;53.254;10.398;2023-02-01T06:32:29;3.00;99.90
13231;DHT22;6681;53.254;10.398;2023-02-01T06:34:54;2.90;99.90
13231;DHT22;6681;53.254;10.398;2023-02-01T06:37:21;2.90;99.90
13231;DHT22;6681;53.254;10.398;2023-02-01T06:39:48;3.70;99.90
13231;DHT22;6681;53.254;10.398;2023-02-01T06:42:14;2.90;99.90
13231;DHT22;6681;53.254;10.398;2023-02-01T06:44:39;4.00;99.90
13231;DHT22;6681;53.254;10.398;2023-02-01T06:47:06;2.90;99.90
13231;DHT22;6681;53.254;10.398;2023-02-01T06:49:32;4.00;99.90
13231;DHT22;6681;53.254;10.398;2023-02-01T06:51:57;2.90;99.90
13231;DHT22;6681;53.254;10.398;2023-02-01T06:54:26;2.90;99.90
13231;DHT22;6681;53.254;10.398;2023-02-01T06:56:51;3.00;99.90
13231;DHT22;6681;53.254;10.398;2023-02-01T06:59:17;3.90;99.90
13231;DHT22;6681;53.254;10.398;2023-02-01T07:01:42;4.20;99.90
13231;DHT22;6681;53.254;10.398;2023-02-01T07:04:11;3.00;99.90
13231;DHT22;6681;53.254;10.398;2023-02-01T07:06:37;3.00;99.90
13231;DHT22;6681;53.254;10.398;2023-02-01T07:09:03;3.10;99.90
13231;DHT22;6681;53.254;10.398;2023-02-01T07:11:29;3.00;99.90
13231;DHT22;6681;53.254;10.398;2023-02-01T07:13:56;3.40;99.90
13231;DHT22;6681;53.254;10.398;2023-02-01T07:16:21;3.30;99.90
13231;DHT22;6681;53.254;10.398;2023-02-01T07:18:47;3.20;99.90
13231;DHT22;6681;53.254;10.398;2023-02-01T07:21:14;4.60;99.90
13231;DHT22;6681;53.254;10.398;2023-02-01T07:23:40;3.20;99.90
13231;DHT22;6681;53.254;10.398;2023-02-01T07:26:07;3.20;99.90
13231;DHT22;6681;53.254;10.398;2023-02-01T07:28:34;3.20;99.90
13231;DHT22;6681;53.254;10.398;2023-02-01T07:33:34;3.30;99.90
13231;DHT22;6681;53.254;10.398;2023-02-01T07:36:02;3.30;99.90
13231;DHT22;6681;53.254;10.398;2023-02-01T07:38:28;3.80;99.90
13231;DHT22;6681;53.254;10.398;2023-02-01T07:41:00;4.10;99.90
13231;DHT22;6681;53.254;10.398;2023-02-01T07:43:27;3.80;99.90
13231;DHT22;6681;53.254;10.398;2023-02-01T07:45:54;3.50;99.90
13231;DHT22;6681;53.254;10.398;2023-02-01T07:48:21;3.50;99.90
13231;DHT22;6681;53.254;10.398;2023-02-01T07:50:48;3.80;99.90
13231;DHT22;6681;53.254;10.398;2023-02-01T07:53:13;4.10;99.90
13231;DHT22;6681;53.254;10.398;2023-02-01T07:55:39;3.60;99.90
13231;DHT22;6681;53.254;10.398;2023-02-01T07:58:05;4.90;99.90
13231;DHT22;6681;53.254;10.398;2023-02-01T08:00:31;3.70;99.90
13231;DHT22;6681;53.254;10.398;2023-02-01T08:03:15;5.30;99.90
13231;DHT22;6681;53.254;10.398;2023-02-01T08:05:41;4.80;99.90
13231;DHT22;6681;53.254;10.398;2023-02-01T08:08:07;5.40;99.90
13231;DHT22;6681;53.254;10.398;2023-02-01T08:10:32;3.90;99.90
13231;DHT22;6681;53.254;10.398;2023-02-01T08:13:00;5.40;99.90
13231;DHT22;6681;53.254;10.398;2023-02-01T08:15:27;4.00;99.90
13231;DHT22;6681;53.254;10.398;2023-02-01T08:17:53;4.10;99.90
13231;DHT22;6681;53.254;10.398;2023-02-01T08:20:20;4.10;99.90
13231;DHT22;6681;53.254;10.398;2023-02-01T08:22:52;4.10;99.90
13231;DHT22;6681;53.254;10.398;2023-02-01T08:25:18;4.10;99.90
13231;DHT22;6681;53.254;10.398;2023-02-01T08:27:44;4.30;99.90
13231;DHT22;6681;53.254;10.398;2023-02-01T08:30:10;4.20;99.90
13231;DHT22;6681;53.254;10.398;2023-02-01T08:32:36;4.30;99.90
13231;DHT22;6681;53.254;10.398;2023-02-01T08:35:03;4.60;99.90
13231;DHT22;6681;53.254;10.398;2023-02-01T08:37:29;4.30;99.90
13231;DHT22;6681;53.254;10.398;2023-02-01T08:39:55;5.90;99.90
13231;DHT22;6681;53.254;10.398;2023-02-01T08:42:20;4.30;99.90
13231;DHT22;6681;53.254;10.398;2023-02-01T08:45:05;4.40;99.90
13231;DHT22;6681;53.254;10.398;2023-02-01T08:47:31;4.40;99.90
13231;DHT22;6681;53.254;10.398;2023-02-01T08:49:57;4.80;99.90
13231;DHT22;6681;53.254;10.398;2023-02-01T08:52:22;4.50;99.90
13231;DHT22;6681;53.254;10.398;2023-02-01T08:54:48;4.50;99.90
13231;DHT22;6681;53.254;10.398;2023-02-01T08:57:14;4.60;99.90
13231;DHT22;6681;53.254;10.398;2023-02-01T08:59:39;5.10;99.90
13231;DHT22;6681;53.254;10.398;2023-02-01T09:02:05;4.60;99.90
13231;DHT22;6681;53.254;10.398;2023-02-01T09:04:31;5.30;99.90
13231;DHT22;6681;53.254;10.398;2023-02-01T09:06:56;4.70;99.90
13231;DHT22;6681;53.254;10.398;2023-02-01T09:09:23;4.90;99.90
13231;DHT22;6681;53.254;10.398;2023-02-01T09:11:48;4.80;99.90
13231;DHT22;6681;53.254;10.398;2023-02-01T09:14:16;4.80;99.90
13231;DHT22;6681;53.254;10.398;2023-02-01T09:16:41;4.80;99.90
13231;DHT22;6681;53.254;10.398;2023-02-01T09:19:07;4.80;99.90
13231;DHT22;6681;53.254;10.398;2023-02-01T09:21:33;4.80;99.90
13231;DHT22;6681;53.254;10.398;2023-02-01T09:23:58;4.80;99.90
13231;DHT22;6681;53.254;10.398;2023-02-01T09:26:24;4.80;99.90
13231;DHT22;6681;53.254;10.398;2023-02-01T09:28:51;4.80;99.90
13231;DHT22;6681;53.254;10.398;2023-02-01T09:31:17;5.20;99.90
13231;DHT22;6681;53.254;10.398;2023-02-01T09:33:43;5.00;99.90
13231;DHT22;6681;53.254;10.398;2023-02-01T09:36:08;5.80;99.90
13231;DHT22;6681;53.254;10.398;2023-02-01T09:38:35;4.90;99.90
13231;DHT22;6681;53.254;10.398;2023-02-01T09:41:00;5.00;99.90
13231;DHT22;6681;53.254;10.398;2023-02-01T09:43:44;5.30;99.90
13231;DHT22;6681;53.254;10.398;2023-02-01T09:46:29;5.10;99.90
13231;DHT22;6681;53.254;10.398;2023-02-01T09:49:00;5.20;99.90
13231;DHT22;6681;53.254;10.398;2023-02-01T09:51:34;5.50;99.90
13231;DHT22;6681;53.254;10.398;2023-02-01T09:54:11;5.40;99.90
13231;DHT22;6681;53.254;10.398;2023-02-01T09:57:06;5.40;99.90
13231;DHT22;6681;53.254;10.398;2023-02-01T09:59:40;5.50;99.90
13231;DHT22;6681;53.254;10.398;2023-02-01T10:02:19;5.50;99.90
13231;DHT22;6681;53.254;10.398;2023-02-01T10:04:47;5.50;99.90
13231;DHT22;6681;53.254;10.398;2023-02-01T10:07:43;5.50;99.90
13231;DHT22;6681;53.254;10.398;2023-02-01T10:10:23;5.50;99.90
13231;DHT22;6681;53.254;10.398;2023-02-01T10:16:31;5.60;99.90
13231;DHT22;6681;53.254;10.398;2023-02-01T10:22:43;5.50;99.90
13231;DHT22;6681;53.254;10.398;2023-02-01T10:25:14;5.40;99.90
13231;DHT22;6681;53.254;10.398;2023-02-01T10:27:42;5.40;99.90
13231;DHT22;6681;53.254;10.398;2023-02-01T10:32:48;5.40;99.90
13231;DHT22;6681;53.254;10.398;2023-02-01T10:35:24;5.40;99.90
13231;DHT22;6681;53.254;10.398;2023-02-01T10:37:52;5.50;99.90
13231;DHT22;6681;53.254;10.398;2023-02-01T10:40:23;5.50;99.90
13231;DHT22;6681;53.254;10.398;2023-02-01T10:42:51;5.50;99.90
13231;DHT22;6681;53.254;10.398;2023-02-01T10:45:21;5.50;99.90
13231;DHT22;6681;53.254;10.398;2023-02-01T10:47:50;5.60;99.90
13231;DHT22;6681;53.254;10.398;2023-02-01T10:50:31;5.60;99.90
13231;DHT22;6681;53.254;10.398;2023-02-01T10:53:22;5.60;99.90
13231;DHT22;6681;53.254;10.398;2023-02-01T10:55:54;5.60;99.90
13231;DHT22;6681;53.254;10.398;2023-02-01T10:58:29;5.70;99.90
13231;DHT22;6681;53.254;10.398;2023-02-01T11:01:23;5.70;99.90
13231;DHT22;6681;53.254;10.398;2023-02-01T11:03:57;5.70;99.90
13231;DHT22;6681;53.254;10.398;2023-02-01T11:06:37;5.80;99.90
13231;DHT22;6681;53.254;10.398;2023-02-01T11:11:52;5.90;99.90
13231;DHT22;6681;53.254;10.398;2023-02-01T11:14:20;6.20;99.90
13231;DHT22;6681;53.254;10.398;2023-02-01T11:17:15;5.90;99.90
13231;DHT22;6681;53.254;10.398;2023-02-01T11:19:37;5.90;99.90
13231;DHT22;6681;53.254;10.398;2023-02-01T11:22:04;5.90;99.90
13231;DHT22;6681;53.254;10.398;2023-02-01T11:24:35;5.90;99.90
13231;DHT22;6681;53.254;10.398;2023-02-01T11:27:12;6.00;99.90
13231;DHT22;6681;53.254;10.398;2023-02-01T11:29:41;6.00;99.90
13231;DHT22;6681;53.254;10.398;2023-02-01T11:32:09;5.90;99.90
13231;DHT22;6681;53.254;10.398;2023-02-01T11:34:41;5.90;99.90
13231;DHT22;6681;53.254;10.398;2023-02-01T11:37:38;6.00;99.90
13231;DHT22;6681;53.254;10.398;2023-02-01T11:40:29;6.00;99.90
13231;DHT22;6681;53.254;10.398;2023-02-01T11:45:33;6.00;99.90
13231;DHT22;6681;53.254;10.398;2023-02-01T11:48:08;6.20;99.90
13231;DHT22;6681;53.254;10.398;2023-02-01T11:56:12;5.90;99.90
13231;DHT22;6681;53.254;10.398;2023-02-01T11:58:59;5.90;99.90
13231;DHT22;6681;53.254;10.398;2023-02-01T12:01:42;5.90;99.90
13231;DHT22;6681;53.254;10.398;2023-02-01T12:04:24;5.80;99.90
13231;DHT22;6681;53.254;10.398;2023-02-01T12:07:02;5.80;99.90
13231;DHT22;6681;53.254;10.398;2023-02-01T12:10:05;5.80;99.90
13231;DHT22;6681;53.254;10.398;2023-02-01T12:15:32;5.80;99.90
13231;DHT22;6681;53.254;10.398;2023-02-01T12:20:59;5.80;99.90
13231;DHT22;6681;53.254;10.398;2023-02-01T12:42:43;5.20;99.90
13231;DHT22;6681;53.254;10.398;2023-02-01T12:45:18;5.10;99.90
13231;DHT22;6681;53.254;10.398;2023-02-01T12:47:52;5.00;99.90
13231;DHT22;6681;53.254;10.398;2023-02-01T12:50:28;4.90;99.90
13231;DHT22;6681;53.254;10.398;2023-02-01T12:53:11;5.30;99.90
13231;DHT22;6681;53.254;10.398;2023-02-01T12:55:43;4.70;99.90
13231;DHT22;6681;53.254;10.398;2023-02-01T12:58:32;4.90;99.90
13231;DHT22;6681;53.254;10.398;2023-02-01T13:01:03;4.70;99.90
13231;DHT22;6681;53.254;10.398;2023-02-01T13:03:37;4.50;99.90
13231;DHT22;6681;53.254;10.398;2023-02-01T13:11:33;4.40;99.90
13231;DHT22;6681;53.254;10.398;2023-02-01T13:14:07;4.30;99.90
13231;DHT22;6681;53.254;10.398;2023-02-01T13:16:47;6.00;99.90
13231;DHT22;6681;53.254;10.398;2023-02-01T13:22:20;4.00;99.90
13231;DHT22;6681;53.254;10.398;2023-02-01T13:25:02;3.80;99.90
13231;DHT22;6681;53.254;10.398;2023-02-01T13:27:36;3.80;99.90
13231;DHT22;6681;53.254;10.398;2023-02-01T13:30:22;3.80;99.90
13231;DHT22;6681;53.254;10.398;2023-02-01T13:35:46;3.80;99.90
13231;DHT22;6681;53.254;10.398;2023-02-01T13:43:40;3.90;99.90
13231;DHT22;6681;53.254;10.398;2023-02-01T13:46:10;4.00;99.90
13231;DHT22;6681;53.254;10.398;2023-02-01T13:49:01;4.00;99.90
13231;DHT22;6681;53.254;10.398;2023-02-01T13:51:35;4.10;99.90
13231;DHT22;6681;53.254;10.398;2023-02-01T13:54:03;4.10;99.90
13231;DHT22;6681;53.254;10.398;2023-02-01T13:56:42;4.10;99.90
13231;DHT22;6681;53.254;10.398;2023-02-01T14:13:29;4.20;99.90
13231;DHT22;6681;53.254;10.398;2023-02-01T14:21:19;4.20;99.90
13231;DHT22;6681;53.254;10.398;2023-02-01T14:26:41;4.10;99.90
13231;DHT22;6681;53.254;10.398;2023-02-01T14:29:31;4.30;99.90
13231;DHT22;6681;53.254;10.398;2023-02-01T14:32:02;4.10;99.90
13231;DHT22;6681;53.254;10.398;2023-02-01T14:37:24;4.20;99.90
13231;DHT22;6681;53.254;10.398;2023-02-01T14:39:59;4.20;99.90
13231;DHT22;6681;53.254;10.398;2023-02-01T14:50:27;4.20;99.90
13231;DHT22;6681;53.254;10.398;2023-02-01T14:55:58;4.10;99.90
13231;DHT22;6681;53.254;10.398;2023-02-01T15:01:31;4.10;99.90
13231;DHT22;6681;53.254;10.398;2023-02-01T15:09:23;4.10;99.90
13231;DHT22;6681;53.254;10.398;2023-02-01T15:12:02;4.10;99.90
13231;DHT22;6681;53.254;10.398;2023-02-01T15:14:45;4.10;99.90
13231;DHT22;6681;53.254;10.398;2023-02-01T15:17:26;3.90;99.90
13231;DHT22;6681;53.254;10.398;2023-02-01T15:22:19;3.80;99.90
13231;DHT22;6681;53.254;10.398;2023-02-01T15:24:52;3.80;99.90
13231;DHT22;6681;53.254;10.398;2023-02-01T15:27:18;3.80;99.90
13231;DHT22;6681;53.254;10.398;2023-02-01T15:29:44;3.80;99.90
13231;DHT22;6681;53.254;10.398;2023-02-01T15:32:29;3.80;99.90
13231;DHT22;6681;53.254;10.398;2023-02-01T15:34:56;3.90;99.90
13231;DHT22;6681;53.254;10.398;2023-02-01T15:37:22;3.90;99.90
13231;DHT22;6681;53.254;10.398;2023-02-01T15:42:40;3.90;99.90
13231;DHT22;6681;53.254;10.398;2023-02-01T15:45:18;3.90;99.90
13231;DHT22;6681;53.254;10.398;2023-02-01T15:47:48;3.90;99.90
13231;DHT22;6681;53.254;10.398;2023-02-01T15:50:18;3.90;99.90
13231;DHT22;6681;53.254;10.398;2023-02-01T15:52:47;5.10;99.90
13231;DHT22;6681;53.254;10.398;2023-02-01T15:55:40;4.10;99.90
13231;DHT22;6681;53.254;10.398;2023-02-01T15:58:09;3.90;99.90
13231;DHT22;6681;53.254;10.398;2023-02-01T16:00:46;3.80;99.90
13231;DHT22;6681;53.254;10.398;2023-02-01T16:03:26;3.90;99.90
13231;DHT22;6681;53.254;10.398;2023-02-01T16:05:58;3.80;99.90
13231;DHT22;6681;53.254;10.398;2023-02-01T16:08:27;3.80;99.90
13231;DHT22;6681;53.254;10.398;2023-02-01T16:11:32;3.80;99.90
13231;DHT22;6681;53.254;10.398;2023-02-01T16:13:59;3.80;99.90
13231;DHT22;6681;53.254;10.398;2023-02-01T16:16:27;4.50;99.90
13231;DHT22;6681;53.254;10.398;2023-02-01T16:18:53;3.80;99.90
13231;DHT22;6681;53.254;10.398;2023-02-01T16:21:19;3.80;99.90
13231;DHT22;6681;53.254;10.398;2023-02-01T16:23:49;3.80;99.90
13231;DHT22;6681;53.254;10.398;2023-02-01T16:26:15;3.90;99.90
13231;DHT22;6681;53.254;10.398;2023-02-01T16:28:41;5.80;99.90
13231;DHT22;6681;53.254;10.398;2023-02-01T16:31:11;3.90;99.90
13231;DHT22;6681;53.254;10.398;2023-02-01T16:33:48;3.90;99.90
13231;DHT22;6681;53.254;10.398;2023-02-01T16:36:14;3.90;99.90
13231;DHT22;6681;53.254;10.398;2023-02-01T16:38:40;5.30;99.90
13231;DHT22;6681;53.254;10.398;2023-02-01T16:41:06;3.90;99.90
13231;DHT22;6681;53.254;10.398;2023-02-01T16:43:34;3.90;99.90
13231;DHT22;6681;53.254;10.398;2023-02-01T16:46:13;5.20;99.90
13231;DHT22;6681;53.254;10.398;2023-02-01T16:48:41;3.90;99.90
13231;DHT22;6681;53.254;10.398;2023-02-01T16:51:11;3.90;99.90
13231;DHT22;6681;53.254;10.398;2023-02-01T16:53:38;3.90;99.90
13231;DHT22;6681;53.254;10.398;2023-02-01T16:56:31;4.00;99.90
13231;DHT22;6681;53.254;10.398;2023-02-01T16:58:57;4.00;99.90
13231;DHT22;6681;53.254;10.398;2023-02-01T17:01:24;4.00;99.90
13231;DHT22;6681;53.254;10.398;2023-02-01T17:03:51;4.00;99.90
13231;DHT22;6681;53.254;10.398;2023-02-01T17:06:20;4.00;99.90
13231;DHT22;6681;53.254;10.398;2023-02-01T17:08:52;4.00;99.90
13231;DHT22;6681;53.254;10.398;2023-02-01T17:11:19;4.00;99.90
13231;DHT22;6681;53.254;10.398;2023-02-01T17:13:45;4.10;99.90
13231;DHT22;6681;53.254;10.398;2023-02-01T17:16:30;4.10;99.90
13231;DHT22;6681;53.254;10.398;2023-02-01T17:19:09;4.10;99.90
13231;DHT22;6681;53.254;10.398;2023-02-01T17:21:47;4.10;99.90
13231;DHT22;6681;53.254;10.398;2023-02-01T17:24:16;4.10;99.90
13231;DHT22;6681;53.254;10.398;2023-02-01T17:26:43;4.10;99.90
13231;DHT22;6681;53.254;10.398;2023-02-01T17:29:10;4.60;99.90
13231;DHT22;6681;53.254;10.398;2023-02-01T17:31:41;4.20;99.90
13231;DHT22;6681;53.254;10.398;2023-02-01T17:34:09;4.20;99.90
13231;DHT22;6681;53.254;10.398;2023-02-01T17:36:34;4.60;99.90
13231;DHT22;6681;53.254;10.398;2023-02-01T17:39:01;4.20;99.90
13231;DHT22;6681;53.254;10.398;2023-02-01T17:41:27;5.40;99.90
13231;DHT22;6681;53.254;10.398;2023-02-01T17:43:53;4.20;99.90
13231;DHT22;6681;53.254;10.398;2023-02-01T17:46:19;4.20;99.90
13231;DHT22;6681;53.254;10.398;2023-02-01T17:48:45;4.20;99.90
13231;DHT22;6681;53.254;10.398;2023-02-01T17:51:16;4.30;99.90
13231;DHT22;6681;53.254;10.398;2023-02-01T17:53:42;4.70;99.90
13231;DHT22;6681;53.254;10.398;2023-02-01T17:56:13;4.20;99.90
13231;DHT22;6681;53.254;10.398;2023-02-01T17:58:39;4.20;99.90
13231;DHT22;6681;53.254;10.398;2023-02-01T18:01:04;4.20;99.90
13231;DHT22;6681;53.254;10.398;2023-02-01T18:03:30;4.20;99.90
13231;DHT22;6681;53.254;10.398;2023-02-01T18:06:00;4.20;99.90
13231;DHT22;6681;53.254;10.398;2023-02-01T18:08:28;4.20;99.90
13231;DHT22;6681;53.254;10.398;2023-02-01T18:10:57;4.20;99.90
13231;DHT22;6681;53.254;10.398;2023-02-01T18:13:30;4.20;99.90
13231;DHT22;6681;53.254;10.398;2023-02-01T18:15:57;4.10;99.90
13231;DHT22;6681;53.254;10.398;2023-02-01T18:18:26;2.30;99.90
13231;DHT22;6681;53.254;10.398;2023-02-01T18:20:55;4.10;99.90
13231;DHT22;6681;53.254;10.398;2023-02-01T18:23:22;4.10;99.90
13231;DHT22;6681;53.254;10.398;2023-02-01T18:25:51;4.30;99.90
13231;DHT22;6681;53.254;10.398;2023-02-01T18:28:18;4.10;99.90